Terminal Aerodrome Forecast
Issued by NWS

Home | Current Version | Previous Version | Text Only | Print | Product List | Glossary On
Versions: 1 2 3 4 5 6 7 8 9 10 11 12 13
045
FTUS43 KMQT 212333
TAFIWD
TAF
KIWD 212333Z 2200/2224 18014G22KT P6SM BKN040
     FM220400 18012G19KT P6SM VCSH BKN040
     FM220500 18012G19KT P6SM -SHRA BKN030
     FM220800 22009KT P6SM -SHRA OVC015
     FM221000 23008KT P6SM -SHRA OVC025
     FM221400 24009KT P6SM VCSH OVC060
     FM221700 25010KT P6SM BKN160=

USA.gov is the U.S. government's official web portal to all federal, state and local government web resources and services.